Hals, Denmark
Current Conditions -  °F | °C
As of 2:20 PM on Thursday 27 Nov 2014 (Local Time) from EKYT Reporting Station
Scattered Clouds Scattered Clouds  
Wind Chill: 41°   Ceiling: Unl
Heat Index: 46°   Visibility: 6mi
Dew Point: 36°   Wind: 13mph
Humidity: 66%   Direction: 120°ESE
Pressure: 30.06"   Gusts: NA
Location:  57°N, 10.31°E
Report Text: EKYT 271320Z 12011KT 9999 FEW025 SCT035 08/02 Q1018
Loading
Personal Weather Stations






























Interactive Weather Map New forecast layout! Learn more

10-Day Weather Forecast

Advertisements
Track Severe Weather on mobile